Terminal Aerodrome Forecast
Issued by NWS Greer, SC

Current Version | Previous Version | Text Only | Print | Product List | Glossary On
Versions: 1 2 3 4 5 6 7 8 9 10 11 12 13 14 15 16 17 18 19 20 21 22
000
FTUS42 KGSP 191500 AAA
TAFGSP
TAF AMD
KGSP 191502Z 1915/2012 08007KT P6SM VCSH SCT015 OVC025
      TEMPO 1915/1917 BKN015 OVC025
     FM191900 08008KT P6SM BKN045
     FM200300 03005KT P6SM BKN070=

USA.gov is the U.S. government's official web portal to all federal, state and local government web resources and services.